Washtucna, WA (99371)

11:09 AM PDT on July 27, 2016 (GMT -0700)
Kahlotus | | Change Station

Elev 1230 ft 46.64 °N, 118.56 °W | Updated 7 minutes ago

Clear
Clear
80.6 °F
Feels Like 81 °F
N
5.0
Wind Variable Wind from NNW
Gusts 16.0 mph

Today
High -- | Low -- °F
--% Chance of Precip.
Yesterday
High -- | Low -- °F
Precip. -- in
Pressure 30.02 in
Visibility 10.0 miles
Clouds Clear
Heat Index 81 °F
Dew Point 57 °F
Humidity 44%
Rainfall 0.00 in
Snow Depth Not available.
5:28 AM 8:30 PM
Last Quarter, 41% visible
METAR KALW 271753Z 21008KT 10SM CLR 28/12 A3005 RMK AO2 SLP165 T02780122 10278 20206 50001
Pressure 30.02 in
Visibility 10.0 miles
Clouds Clear
Heat Index 81 °F
Dew Point 57 °F
Humidity 44%
Rainfall 0.00 in
Snow Depth Not available.
5:28 AM 8:30 PM
Last Quarter, 41% visible
METAR KALW 271753Z 21008KT 10SM CLR 28/12 A3005 RMK AO2 SLP165 T02780122 10278 20206 50001

10-Day Weather Forecast

Almanac

Astronomy

Jul. 27, 2016 Rise Set
Actual Time
Civil Twilight
Nautical Twilight
Astronomical Twilight
Moon
Length of Visible Light
Length of Day
Tomorrow will be .
, % of the Moon is Illuminated

Today's Extremes

State Highs State Lows

Community

WunderPhotos

Upload Photos

1,927,892 photos uploaded!

WunderBlog® & News

Nearby

Air Quality

  Air Quality AQ Index Pollutant
Not available.

Snow Depth

Station Depth Elevation

Earthquake Activity

City Distance Mag. Time & Date
Minimum magnitude displayed is 2.5.

Coastal Water Temperatures

Place Temperature

Stations

Nearby Weather Stations

Station Location Temp. Windchill Dew Point Humidity Wind Precip. Elev Updated Type
                   

Watches & Warnings

There are currently no watches in effect.